createdAt,value
2022-12-27T00:00:42.608Z,37.97
2022-12-27T00:03:10.433Z,36.37
2022-12-27T00:05:38.463Z,37.87
2022-12-27T00:08:06.412Z,37.27
2022-12-27T00:10:34.476Z,36.07
2022-12-27T00:13:02.209Z,37.43
2022-12-27T00:15:30.161Z,36.00
2022-12-27T00:17:59.325Z,36.73
2022-12-27T00:20:27.078Z,39.10
2022-12-27T00:22:54.823Z,36.83
2022-12-27T00:25:22.645Z,35.37
2022-12-27T00:27:50.491Z,35.43
2022-12-27T00:30:18.300Z,35.23
2022-12-27T00:32:46.004Z,36.37
2022-12-27T00:35:15.116Z,38.20
2022-12-27T00:37:42.844Z,36.40
2022-12-27T00:40:12.086Z,37.70
2022-12-27T00:42:39.855Z,36.43
2022-12-27T00:45:08.692Z,35.95
2022-12-27T00:47:37.029Z,37.17
2022-12-27T00:50:05.299Z,37.07
2022-12-27T00:52:34.401Z,36.80
2022-12-27T00:55:02.545Z,37.20
2022-12-27T00:57:30.246Z,37.43
2022-12-27T00:59:57.992Z,38.03
2022-12-27T01:02:26.130Z,37.87
2022-12-27T01:04:54.993Z,38.93
2022-12-27T01:07:22.803Z,37.87
2022-12-27T01:09:51.999Z,39.50
2022-12-27T01:12:19.889Z,38.97
2022-12-27T01:14:47.668Z,40.70
2022-12-27T01:17:15.412Z,39.03
2022-12-27T01:19:43.179Z,39.00
2022-12-27T01:22:10.974Z,39.07
2022-12-27T01:24:38.695Z,40.07
2022-12-27T01:27:07.863Z,39.73
2022-12-27T01:29:36.687Z,40.93
2022-12-27T01:32:04.511Z,39.77
2022-12-27T01:34:32.477Z,40.17
2022-12-27T01:37:00.199Z,40.23
2022-12-27T01:39:27.977Z,39.40
2022-12-27T01:42:13.322Z,39.87
2022-12-27T01:44:56.709Z,39.30
2022-12-27T01:47:46.918Z,38.60
2022-12-27T01:50:19.885Z,36.33
2022-12-27T01:52:51.124Z,35.67
2022-12-27T01:55:23.035Z,35.67
2022-12-27T01:57:52.058Z,36.80
2022-12-27T02:00:21.507Z,35.77
2022-12-27T02:02:50.090Z,36.90
2022-12-27T02:05:18.730Z,37.70
2022-12-27T02:07:55.920Z,36.17
2022-12-27T02:10:23.760Z,36.13
2022-12-27T02:12:51.611Z,35.83
2022-12-27T02:15:20.825Z,38.00
2022-12-27T02:17:48.607Z,35.53
2022-12-27T02:20:17.923Z,36.07
2022-12-27T02:23:40.223Z,34.60
2022-12-27T02:26:34.651Z,34.47
2022-12-27T02:29:13.957Z,32.30
2022-12-27T02:31:43.481Z,33.13
2022-12-27T02:34:15.033Z,34.43
2022-12-27T02:36:44.280Z,35.17
2022-12-27T02:39:12.718Z,34.50
2022-12-27T02:41:58.428Z,34.63
2022-12-27T02:44:45.105Z,34.27
2022-12-27T02:47:36.990Z,33.50
2022-12-27T02:50:24.039Z,34.17
2022-12-27T02:53:08.290Z,34.57
2022-12-27T02:56:04.700Z,33.77
2022-12-27T02:58:37.116Z,33.73
2022-12-27T03:01:32.270Z,34.17
2022-12-27T03:04:12.041Z,33.47
2022-12-27T03:06:52.685Z,35.57
2022-12-27T03:09:47.969Z,34.23
2022-12-27T03:12:38.452Z,33.30
2022-12-27T03:15:33.454Z,33.20
2022-12-27T03:18:07.995Z,34.33
2022-12-27T03:20:53.613Z,33.20
2022-12-27T03:23:38.843Z,33.53
2022-12-27T03:26:06.870Z,32.17
2022-12-27T03:28:53.568Z,34.90
2022-12-27T03:31:42.355Z,32.33
2022-12-27T03:34:36.013Z,33.50
2022-12-27T03:37:23.871Z,33.53
2022-12-27T03:39:55.460Z,33.00
2022-12-27T03:42:43.516Z,33.03
2022-12-27T03:45:11.660Z,32.57
2022-12-27T03:47:42.792Z,33.47
2022-12-27T03:50:16.486Z,35.60
2022-12-27T03:52:46.409Z,34.10
2022-12-27T03:55:14.536Z,33.63
2022-12-27T03:57:42.332Z,35.07
2022-12-27T04:00:11.349Z,33.97
2022-12-27T04:02:40.442Z,32.77
2022-12-27T04:05:08.917Z,33.23
2022-12-27T04:07:38.081Z,35.67
2022-12-27T04:10:23.917Z,32.70
2022-12-27T04:13:09.156Z,34.80
2022-12-27T04:15:54.587Z,33.23
2022-12-27T04:18:39.717Z,31.93
2022-12-27T04:21:25.036Z,32.43
2022-12-27T04:24:11.642Z,32.03
2022-12-27T04:26:56.868Z,31.97
2022-12-27T04:29:42.289Z,32.03
2022-12-27T04:32:27.638Z,33.00
2022-12-27T04:34:55.402Z,32.97
2022-12-27T04:37:24.556Z,32.73
2022-12-27T04:40:07.593Z,32.87
2022-12-27T04:42:52.684Z,31.70
2022-12-27T04:45:38.194Z,31.47
2022-12-27T04:48:24.068Z,31.37
2022-12-27T04:51:09.464Z,30.80
2022-12-27T04:53:54.834Z,31.93
2022-12-27T04:56:23.931Z,30.63
2022-12-27T04:59:05.570Z,32.00
2022-12-27T05:01:51.505Z,32.53
2022-12-27T05:04:20.174Z,31.90
2022-12-27T05:06:47.897Z,33.07
2022-12-27T05:09:45.045Z,31.70
2022-12-27T05:12:31.273Z,30.90
2022-12-27T05:14:58.994Z,30.40
2022-12-27T05:17:26.763Z,33.50
2022-12-27T05:19:54.519Z,34.10
2022-12-27T05:22:39.839Z,32.87
2022-12-27T05:25:24.898Z,35.37
2022-12-27T05:27:56.718Z,34.23
2022-12-27T05:30:24.495Z,33.30
2022-12-27T05:32:55.420Z,33.30
2022-12-27T05:35:23.389Z,34.17
2022-12-27T05:37:54.892Z,33.33
2022-12-27T05:40:23.202Z,33.63
2022-12-27T05:42:51.427Z,35.83
2022-12-27T05:45:21.062Z,34.37
2022-12-27T05:47:48.896Z,33.40
2022-12-27T05:50:16.895Z,33.20
2022-12-27T05:52:45.776Z,31.50
2022-12-27T05:55:13.888Z,33.70
2022-12-27T05:57:41.615Z,34.20
2022-12-27T06:00:10.388Z,32.83
2022-12-27T06:02:40.426Z,34.50
2022-12-27T06:05:10.205Z,34.77
2022-12-27T06:07:38.967Z,33.40
2022-12-27T06:10:08.017Z,34.70
2022-12-27T06:12:35.953Z,35.30
2022-12-27T06:15:04.222Z,34.80
2022-12-27T06:17:32.001Z,33.40
2022-12-27T06:20:01.080Z,34.70
2022-12-27T06:22:28.924Z,33.30
2022-12-27T06:24:56.701Z,35.10
2022-12-27T06:27:24.505Z,33.40
2022-12-27T06:29:52.262Z,33.13
2022-12-27T06:32:20.007Z,33.70
2022-12-27T06:34:47.779Z,32.93
2022-12-27T06:37:18.082Z,33.13
2022-12-27T06:39:46.198Z,33.07
2022-12-27T06:42:13.921Z,34.93
2022-12-27T06:44:48.042Z,33.77
2022-12-27T06:47:15.843Z,33.57
2022-12-27T06:49:43.640Z,34.43
2022-12-27T06:52:11.382Z,33.17
2022-12-27T06:54:41.395Z,33.03
2022-12-27T06:57:09.116Z,33.97
2022-12-27T06:59:36.869Z,32.27
2022-12-27T07:02:04.761Z,30.97
2022-12-27T07:04:32.556Z,34.73
2022-12-27T07:07:00.324Z,31.83
2022-12-27T07:09:28.033Z,31.37
2022-12-27T07:11:57.198Z,32.20
2022-12-27T07:14:24.954Z,31.97
2022-12-27T07:16:52.882Z,32.13
2022-12-27T07:19:21.012Z,31.53
2022-12-27T07:21:48.725Z,31.93
2022-12-27T07:24:16.434Z,32.80
2022-12-27T07:26:44.245Z,33.10
2022-12-27T07:29:13.346Z,34.00
2022-12-27T07:31:41.686Z,32.50
2022-12-27T07:34:11.461Z,32.63
2022-12-27T07:36:40.280Z,32.37
2022-12-27T07:39:08.466Z,33.37
2022-12-27T07:41:36.837Z,31.60
2022-12-27T07:44:05.092Z,33.33
2022-12-27T07:46:34.577Z,32.63
2022-12-27T07:49:02.427Z,31.33
2022-12-27T07:51:31.015Z,32.37
2022-12-27T07:53:58.763Z,31.47
2022-12-27T07:56:28.774Z,31.77
2022-12-27T07:58:58.011Z,32.90
2022-12-27T08:01:27.880Z,33.13
2022-12-27T08:03:57.334Z,31.00
2022-12-27T08:06:29.153Z,31.17
2022-12-27T08:09:00.238Z,27.90
2022-12-27T08:11:28.005Z,29.23
2022-12-27T08:13:55.808Z,29.47
2022-12-27T08:16:25.283Z,28.67
2022-12-27T08:18:54.108Z,27.50
2022-12-27T08:21:23.636Z,27.10
2022-12-27T08:23:51.390Z,28.20
2022-12-27T08:26:19.177Z,28.30
2022-12-27T08:28:46.946Z,28.13
2022-12-27T08:31:16.745Z,27.53
2022-12-27T08:33:44.873Z,27.47
2022-12-27T08:39:03.206Z,26.77
2022-12-27T08:41:30.988Z,27.20
2022-12-27T08:43:58.780Z,25.73
2022-12-27T08:46:26.721Z,25.30
2022-12-27T08:48:54.712Z,23.20
2022-12-27T08:51:32.835Z,23.27
2022-12-27T08:54:09.189Z,21.90
2022-12-27T08:56:37.115Z,21.53
2022-12-27T08:59:04.893Z,22.07
2022-12-27T09:01:32.769Z,21.30
2022-12-27T09:04:00.766Z,22.13
2022-12-27T09:06:28.701Z,20.93
2022-12-27T09:08:57.022Z,19.97
2022-12-27T09:11:28.138Z,21.33
2022-12-27T09:13:56.345Z,21.03
2022-12-27T09:16:27.405Z,20.33
2022-12-27T09:18:56.527Z,22.20
2022-12-27T09:21:25.764Z,19.80
2022-12-27T09:23:54.018Z,19.73
2022-12-27T09:26:22.844Z,19.77
2022-12-27T09:28:52.242Z,18.77
2022-12-27T09:31:21.079Z,18.80
2022-12-27T09:33:48.904Z,18.20
2022-12-27T09:36:17.846Z,17.37
2022-12-27T09:38:46.186Z,16.50
2022-12-27T09:41:47.615Z,17.50
2022-12-27T09:44:12.864Z,16.10
2022-12-27T09:46:42.596Z,16.23
2022-12-27T09:49:12.107Z,16.03
2022-12-27T09:51:46.681Z,16.00
2022-12-27T09:54:16.435Z,16.20
2022-12-27T09:57:18.465Z,16.60
2022-12-27T09:59:38.487Z,15.40
2022-12-27T10:02:22.169Z,16.10
2022-12-27T10:05:19.035Z,15.27
2022-12-27T10:07:44.541Z,15.27
2022-12-27T10:10:19.403Z,15.50
2022-12-27T10:13:06.439Z,17.60
2022-12-27T10:15:43.946Z,16.13
2022-12-27T10:18:24.682Z,17.03
2022-12-27T10:21:02.355Z,16.40
2022-12-27T10:23:32.939Z,16.03
2022-12-27T10:26:02.778Z,16.60
2022-12-27T10:28:37.735Z,17.33
2022-12-27T10:31:08.026Z,17.20
2022-12-27T10:33:36.501Z,17.67
2022-12-27T10:36:10.453Z,19.47
2022-12-27T10:38:38.355Z,18.27
2022-12-27T10:41:18.355Z,17.47
2022-12-27T10:43:48.255Z,19.03
2022-12-27T10:46:21.574Z,19.83
2022-12-27T10:51:49.697Z,20.50
2022-12-27T10:54:22.743Z,20.23
2022-12-27T10:56:50.637Z,21.67
2022-12-27T10:59:20.073Z,20.73
2022-12-27T11:01:51.684Z,22.20
2022-12-27T11:04:22.304Z,22.17
2022-12-27T11:06:51.499Z,23.53
2022-12-27T11:09:31.278Z,26.13
2022-12-27T11:12:28.819Z,22.90
2022-12-27T11:14:59.215Z,24.07
2022-12-27T11:17:30.435Z,23.87
2022-12-27T11:20:00.067Z,24.00
2022-12-27T11:22:28.074Z,24.97
2022-12-27T11:24:57.263Z,24.83
2022-12-27T11:27:27.836Z,23.00
2022-12-27T11:29:57.887Z,25.97
2022-12-27T11:32:26.101Z,23.73
2022-12-27T11:34:56.020Z,26.97
2022-12-27T11:37:26.568Z,24.70
2022-12-27T11:39:55.282Z,25.57
2022-12-27T11:42:32.445Z,26.50
2022-12-27T11:45:06.822Z,29.37
2022-12-27T11:47:39.222Z,29.73
2022-12-27T11:50:30.515Z,35.57
2022-12-27T11:53:13.633Z,37.27
2022-12-27T11:56:07.953Z,35.53
2022-12-27T11:58:45.215Z,35.27
2022-12-27T12:01:28.383Z,39.10
2022-12-27T12:04:24.693Z,36.77
2022-12-27T12:06:59.085Z,41.30
2022-12-27T12:09:47.359Z,44.67
2022-12-27T12:12:41.217Z,46.57
2022-12-27T12:15:35.925Z,44.07
2022-12-27T12:18:14.232Z,45.73
2022-12-27T12:20:53.865Z,43.13
2022-12-27T12:23:31.483Z,45.70
2022-12-27T12:26:19.989Z,46.17
2022-12-27T12:29:17.674Z,41.77
2022-12-27T12:32:26.713Z,43.63
2022-12-27T12:35:16.867Z,41.63
2022-12-27T12:38:01.649Z,40.57
2022-12-27T12:40:40.337Z,42.97
2022-12-27T12:43:21.525Z,44.10
2022-12-27T12:46:05.204Z,43.50
2022-12-27T12:49:11.479Z,38.57
2022-12-27T12:51:51.474Z,45.63
2022-12-27T12:54:31.285Z,44.47
2022-12-27T12:57:22.086Z,42.13
2022-12-27T13:00:08.808Z,40.03
2022-12-27T13:03:08.035Z,42.93
2022-12-27T13:05:42.622Z,43.50
2022-12-27T13:08:15.228Z,41.27
2022-12-27T13:10:53.145Z,43.10
2022-12-27T13:13:29.375Z,41.87
2022-12-27T13:16:07.628Z,43.70
2022-12-27T13:18:42.137Z,42.73
2022-12-27T13:21:21.282Z,42.30
2022-12-27T13:23:57.643Z,42.77
2022-12-27T13:26:33.031Z,45.20
2022-12-27T13:29:17.607Z,45.50
2022-12-27T13:31:52.825Z,45.13
2022-12-27T13:34:32.984Z,42.40
2022-12-27T13:37:10.893Z,45.27
2022-12-27T13:39:47.317Z,43.07
2022-12-27T13:42:35.668Z,45.83
2022-12-27T13:45:11.117Z,44.23
2022-12-27T13:47:49.556Z,44.57
2022-12-27T13:50:41.594Z,44.27
2022-12-27T13:53:29.150Z,43.87
2022-12-27T13:56:20.400Z,44.37
2022-12-27T13:59:27.424Z,42.87
2022-12-27T14:02:24.474Z,41.87
2022-12-27T14:05:25.912Z,42.97
2022-12-27T14:07:58.855Z,43.27
2022-12-27T14:10:37.423Z,42.20
2022-12-27T14:13:07.863Z,42.20
2022-12-27T14:15:59.862Z,44.13
2022-12-27T14:18:40.422Z,43.97
2022-12-27T14:21:16.389Z,42.30
2022-12-27T14:24:02.385Z,41.20
2022-12-27T14:26:57.037Z,44.73
2022-12-27T14:30:04.727Z,44.07
2022-12-27T14:32:44.896Z,44.10
2022-12-27T14:35:56.897Z,44.87
2022-12-27T14:39:00.622Z,43.33
2022-12-27T14:42:20.131Z,41.73
2022-12-27T14:48:34.736Z,37.40
2022-12-27T14:52:03.686Z,39.00
2022-12-27T14:55:07.034Z,42.07
2022-12-27T14:57:39.540Z,41.50
2022-12-27T15:00:15.905Z,41.20
2022-12-27T15:02:55.470Z,42.30
2022-12-27T15:05:44.553Z,40.93
2022-12-27T15:08:40.636Z,40.13
2022-12-27T15:11:22.387Z,43.47
2022-12-27T15:14:01.546Z,41.13
2022-12-27T15:16:38.518Z,41.80
2022-12-27T15:19:17.142Z,42.37
2022-12-27T15:21:55.572Z,40.27
2022-12-27T15:24:32.024Z,43.03
2022-12-27T15:27:03.036Z,45.83
2022-12-27T15:29:38.591Z,40.87
2022-12-27T15:32:19.215Z,42.00
2022-12-27T15:34:57.377Z,43.00
2022-12-27T15:37:53.855Z,40.03
2022-12-27T15:40:42.255Z,40.50
2022-12-27T15:43:22.771Z,41.80
2022-12-27T15:45:58.769Z,41.80
2022-12-27T15:48:53.838Z,42.53
2022-12-27T15:51:28.231Z,46.60
2022-12-27T15:54:22.535Z,44.60
2022-12-27T15:57:25.431Z,44.03
2022-12-27T15:59:55.725Z,44.30
2022-12-27T16:02:32.531Z,48.63
2022-12-27T16:05:07.099Z,47.37
2022-12-27T16:07:41.319Z,48.93
2022-12-27T16:10:45.872Z,47.37
2022-12-27T16:13:34.505Z,49.97
2022-12-27T16:16:25.723Z,50.10
2022-12-27T16:19:20.053Z,52.07
2022-12-27T16:21:47.899Z,50.67
2022-12-27T16:24:19.402Z,52.27
2022-12-27T16:26:55.623Z,56.50
2022-12-27T16:29:28.450Z,54.63
2022-12-27T16:32:16.966Z,59.53
2022-12-27T16:34:46.285Z,55.40
2022-12-27T16:37:24.808Z,60.80
2022-12-27T16:40:11.301Z,58.63
2022-12-27T16:43:24.820Z,58.03
2022-12-27T16:45:58.727Z,55.30
2022-12-27T16:48:32.873Z,58.83
2022-12-27T16:51:12.472Z,57.10
2022-12-27T16:53:57.124Z,59.47
2022-12-27T16:56:25.716Z,61.53
2022-12-27T16:58:54.824Z,57.63
2022-12-27T17:02:02.093Z,60.53
2022-12-27T17:04:54.100Z,57.43
2022-12-27T17:07:42.959Z,56.63
2022-12-27T17:10:36.631Z,59.13
2022-12-27T17:13:11.840Z,56.93
2022-12-27T17:15:49.338Z,57.63
2022-12-27T17:18:27.689Z,59.30
2022-12-27T17:21:03.370Z,60.73
2022-12-27T17:23:31.554Z,62.97
2022-12-27T17:26:12.475Z,60.43
2022-12-27T17:28:48.738Z,61.67
2022-12-27T17:31:22.126Z,59.97
2022-12-27T17:33:59.706Z,60.93
2022-12-27T17:36:38.699Z,63.73
2022-12-27T17:39:18.320Z,66.37
2022-12-27T17:42:09.598Z,61.33
2022-12-27T17:44:54.094Z,57.43
2022-12-27T17:47:34.414Z,59.17
2022-12-27T17:50:03.792Z,60.90
2022-12-27T17:52:50.210Z,60.53
2022-12-27T17:55:37.691Z,58.63
2022-12-27T17:58:07.436Z,59.07
2022-12-27T18:00:40.417Z,58.57
2022-12-27T18:03:11.234Z,63.53
2022-12-27T18:05:42.230Z,62.73
2022-12-27T18:08:19.862Z,60.27
2022-12-27T18:10:47.605Z,58.90
2022-12-27T18:13:18.605Z,58.43
2022-12-27T18:15:49.333Z,63.57
2022-12-27T18:18:19.254Z,56.97
2022-12-27T18:20:47.007Z,61.33
2022-12-27T18:23:18.580Z,63.40
2022-12-27T18:25:58.701Z,61.03
2022-12-27T18:28:32.877Z,61.53
2022-12-27T18:31:04.874Z,61.33
2022-12-27T18:33:34.228Z,62.20
2022-12-27T18:36:03.552Z,60.00
2022-12-27T18:38:35.064Z,61.40
2022-12-27T18:41:05.712Z,61.17
2022-12-27T18:43:34.637Z,56.20
2022-12-27T18:46:03.396Z,64.47
2022-12-27T18:48:34.886Z,61.60
2022-12-27T18:51:03.268Z,62.90
2022-12-27T18:53:35.517Z,61.20
2022-12-27T18:56:06.028Z,62.50
2022-12-27T18:58:36.139Z,62.67
2022-12-27T19:01:07.183Z,65.70
2022-12-27T19:03:40.363Z,65.07
2022-12-27T19:06:10.930Z,64.43
2022-12-27T19:08:45.331Z,62.63
2022-12-27T19:11:20.346Z,66.67
2022-12-27T19:13:50.002Z,66.63
2022-12-27T19:16:23.552Z,63.90
2022-12-27T19:18:53.162Z,65.40
2022-12-27T19:21:37.433Z,62.43
2022-12-27T19:27:03.102Z,60.93
2022-12-27T19:29:39.322Z,62.93
2022-12-27T19:32:11.162Z,62.97
2022-12-27T19:34:44.062Z,56.90
2022-12-27T19:37:12.137Z,59.87
2022-12-27T19:39:40.832Z,62.93
2022-12-27T19:42:16.128Z,61.93
2022-12-27T19:44:43.957Z,62.60
2022-12-27T19:47:13.266Z,62.10
2022-12-27T19:49:41.705Z,88.83
2022-12-27T19:52:12.810Z,78.67
2022-12-27T19:54:40.590Z,70.83
2022-12-27T19:57:11.618Z,65.63
2022-12-27T19:59:39.626Z,62.37
2022-12-27T20:02:07.794Z,63.93
2022-12-27T20:04:35.780Z,60.50
2022-12-27T20:07:03.808Z,62.30
2022-12-27T20:09:31.558Z,59.67
2022-12-27T20:11:59.326Z,62.33
2022-12-27T20:14:28.485Z,60.57
2022-12-27T20:16:56.271Z,62.03
2022-12-27T20:19:24.198Z,58.37
2022-12-27T20:21:52.024Z,59.30
2022-12-27T20:24:19.786Z,60.70
2022-12-27T20:26:47.648Z,62.33
2022-12-27T20:29:16.021Z,64.30
2022-12-27T20:31:48.559Z,61.80
2022-12-27T20:34:16.501Z,60.83
2022-12-27T20:36:44.625Z,60.77
2022-12-27T20:39:12.441Z,62.30
2022-12-27T20:41:40.337Z,61.53
2022-12-27T20:44:08.179Z,63.23
2022-12-27T20:46:38.614Z,63.37
2022-12-27T20:49:08.065Z,58.93
2022-12-27T20:51:35.959Z,67.07
2022-12-27T20:54:04.817Z,61.53
2022-12-27T20:56:34.148Z,64.90
2022-12-27T20:59:02.192Z,64.30
2022-12-27T21:01:30.065Z,62.73
2022-12-27T21:03:58.354Z,64.47
2022-12-27T21:06:29.353Z,62.83
2022-12-27T21:08:58.243Z,62.70
2022-12-27T21:11:27.865Z,63.00
2022-12-27T21:13:56.105Z,66.17
2022-12-27T21:16:26.945Z,62.67
2022-12-27T21:18:55.734Z,58.87
2022-12-27T21:21:27.593Z,59.70
2022-12-27T21:24:00.538Z,59.97
2022-12-27T21:26:30.195Z,61.67
2022-12-27T21:29:01.070Z,59.70
2022-12-27T21:31:29.302Z,62.50
2022-12-27T21:33:57.611Z,59.50
2022-12-27T21:36:27.608Z,60.50
2022-12-27T21:38:57.167Z,59.87
2022-12-27T21:41:27.553Z,58.37
2022-12-27T21:43:55.402Z,58.33
2022-12-27T21:46:25.883Z,55.23
2022-12-27T21:48:56.251Z,56.10
2022-12-27T21:51:26.140Z,57.67
2022-12-27T21:53:54.650Z,58.50
2022-12-27T21:56:24.435Z,57.03
2022-12-27T21:58:52.782Z,58.80
2022-12-27T22:01:22.197Z,56.60
2022-12-27T22:03:52.451Z,58.40
2022-12-27T22:06:21.901Z,59.23
2022-12-27T22:08:53.046Z,54.90
2022-12-27T22:11:23.510Z,58.67
2022-12-27T22:13:51.800Z,57.97
2022-12-27T22:16:21.278Z,56.00
2022-12-27T22:18:50.000Z,57.13
2022-12-27T22:21:20.923Z,57.67
2022-12-27T22:23:50.144Z,54.33
2022-12-27T22:26:19.271Z,56.33
2022-12-27T22:28:48.534Z,54.73
2022-12-27T22:31:19.266Z,54.77
2022-12-27T22:33:47.478Z,52.10
2022-12-27T22:36:16.521Z,50.37
2022-12-27T22:38:47.681Z,51.47
2022-12-27T22:41:19.220Z,54.33
2022-12-27T22:43:52.360Z,57.00
2022-12-27T22:46:20.935Z,54.40
2022-12-27T22:48:51.531Z,53.67
2022-12-27T22:51:21.909Z,54.17
2022-12-27T22:53:50.109Z,54.17
2022-12-27T22:56:20.480Z,54.33
2022-12-27T22:58:48.410Z,53.87
2022-12-27T23:01:19.451Z,54.43
2022-12-27T23:03:47.799Z,52.50
2022-12-27T23:06:15.702Z,52.20
2022-12-27T23:08:44.404Z,52.27
2022-12-27T23:11:17.765Z,50.63
2022-12-27T23:13:45.778Z,49.33
2022-12-27T23:16:13.823Z,48.67
2022-12-27T23:18:43.043Z,48.83
2022-12-27T23:21:21.294Z,47.83
2022-12-27T23:23:52.383Z,46.07
2022-12-27T23:26:22.897Z,43.27
2022-12-27T23:28:52.268Z,43.00
2022-12-27T23:31:21.181Z,40.40
2022-12-27T23:33:50.504Z,38.27
2022-12-27T23:36:19.887Z,39.63
2022-12-27T23:38:48.554Z,41.03
2022-12-27T23:41:18.043Z,38.70
2022-12-27T23:43:52.620Z,36.73
2022-12-27T23:46:23.806Z,37.03
2022-12-27T23:48:53.092Z,35.23
2022-12-27T23:51:22.066Z,34.83
2022-12-27T23:53:50.035Z,34.40
2022-12-27T23:56:19.501Z,30.80
2022-12-27T23:58:47.844Z,33.40
